Time;durP1;ratioP1;P1;durP2;ratioP2;P2;SDS_P1;SDS_P2;PMS_P1;PMS_P2;Temp;Humidity;BMP_temperature;BMP_pressure;BME280_temperature;BME280_humidity;BME280_pressure;Samples;Min_cycle;Max_cycle;Signal;HPM_P1;HPM_P2
2021/03/18 00:01:39;;;;;;;2.22;2.12;;;;;;;0.08;84.85;102288.13;5339242;26;20034;-74
2021/03/18 00:04:05;;;;;;;1.80;1.80;;;;;;;-1.03;85.20;102110.81;5338224;26;20064;-73
2021/03/18 00:06:30;;;;;;;1.80;1.80;;;;;;;-1.03;85.31;102134.00;5340015;26;20054;-73
2021/03/18 00:08:56;;;;;;;2.67;2.58;;;;;;;-0.03;85.19;102293.97;5338567;26;20112;-73
2021/03/18 00:11:22;;;;;;;1.87;1.87;;;;;;;-0.10;85.13;102279.25;5338824;26;20844;-73
2021/03/18 00:13:47;;;;;;;1.73;1.73;;;;;;;-0.02;86.08;102293.16;5340864;26;20038;-73
2021/03/18 00:16:13;;;;;;;1.85;1.85;;;;;;;-0.25;85.88;102237.69;5339648;26;20724;-74
2021/03/18 00:18:46;;;;;;;1.95;1.87;;;;;;;-0.37;85.56;102219.41;5356324;26;20469;-74
2021/03/18 00:21:12;;;;;;;1.70;1.70;;;;;;;-0.07;85.87;102274.13;5359185;26;20052;-73
2021/03/18 00:23:37;;;;;;;1.80;1.80;;;;;;;-0.09;86.18;102259.47;5357365;26;20050;-73
2021/03/18 00:26:03;;;;;;;1.80;1.80;;;;;;;0.03;86.12;102282.03;5361325;26;20041;-73
2021/03/18 00:28:28;;;;;;;1.75;1.75;;;;;;;-0.86;85.93;102145.50;5357656;26;20102;-73
2021/03/18 00:30:54;;;;;;;2.90;2.80;;;;;;;-0.01;86.22;102294.87;5338963;26;20046;-74
2021/03/18 00:33:19;;;;;;;1.70;1.70;;;;;;;-0.22;86.43;102263.53;5356575;26;20640;-73
2021/03/18 00:35:44;;;;;;;1.75;1.75;;;;;;;0.02;86.77;102301.81;5362989;26;20046;-73
2021/03/18 00:38:10;;;;;;;2.22;2.12;;;;;;;-0.73;85.98;102174.94;5362184;26;20043;-74
2021/03/18 00:40:47;;;;;;;1.90;1.90;;;;;;;-0.21;86.35;102273.00;5362501;26;20057;-73
2021/03/18 00:43:13;;;;;;;1.67;1.67;;;;;;;-0.12;86.52;102296.41;5363309;26;20051;-74
2021/03/18 00:45:42;;;;;;;1.80;1.80;;;;;;;-0.68;86.49;102209.44;5361925;26;20050;-74
2021/03/18 00:48:09;;;;;;;1.70;1.70;;;;;;;-0.64;86.81;102223.25;5359454;26;20565;-73
2021/03/18 00:50:42;;;;;;;2.12;2.03;;;;;;;-0.23;86.57;102293.63;5340525;26;20124;-74
2021/03/18 00:53:09;;;;;;;1.70;1.70;;;;;;;-0.31;86.68;102290.03;5340002;26;20797;-73
2021/03/18 00:55:34;;;;;;;2.53;2.42;;;;;;;-0.23;86.67;102303.06;5340001;26;20052;-73
2021/03/18 00:58:00;;;;;;;2.22;2.12;;;;;;;-0.24;87.43;102306.47;5339594;26;20034;-73
2021/03/18 01:00:30;;;;;;;1.90;1.85;;;;;;;-0.29;87.26;102302.97;5357626;26;20043;-73
2021/03/18 01:02:55;;;;;;;2.00;1.90;;;;;;;-0.30;86.93;102301.22;5366964;26;20042;-74
2021/03/18 01:05:31;;;;;;;1.75;1.75;;;;;;;-0.66;87.27;102249.00;5340574;26;20356;-75
2021/03/18 01:07:57;;;;;;;1.80;1.80;;;;;;;-0.67;87.17;102264.44;5356819;26;20046;-73
2021/03/18 01:10:23;;;;;;;1.80;1.80;;;;;;;-1.02;87.50;102213.06;5341324;26;20625;-74
2021/03/18 01:12:48;;;;;;;2.10;2.00;;;;;;;-0.77;87.12;102270.25;5338739;26;20051;-74
2021/03/18 01:15:14;;;;;;;1.80;1.80;;;;;;;-0.60;87.54;102302.41;5340840;26;20420;-73
2021/03/18 01:17:40;;;;;;;1.75;1.75;;;;;;;-0.46;87.54;102331.00;5345846;26;20035;-73
2021/03/18 01:20:09;;;;;;;1.80;1.80;;;;;;;-1.11;87.63;102212.87;5340235;26;20103;-73
2021/03/18 01:22:34;;;;;;;2.10;2.00;;;;;;;-0.62;87.46;102294.63;5356703;26;21087;-73
2021/03/18 01:24:59;;;;;;;1.85;1.83;;;;;;;-0.44;87.62;102348.28;5340460;26;20119;-73
2021/03/18 01:27:25;;;;;;;2.00;1.90;;;;;;;-0.41;87.45;102319.94;5337995;26;20730;-73
2021/03/18 01:29:51;;;;;;;2.60;2.50;;;;;;;-1.18;88.01;102188.69;5338356;26;20043;-73
2021/03/18 01:32:17;;;;;;;2.00;1.90;;;;;;;-0.40;87.54;102313.09;5339156;26;20057;-73
2021/03/18 01:34:42;;;;;;;1.80;1.80;;;;;;;-0.66;87.59;102277.34;5339545;26;20047;-73
2021/03/18 01:37:07;;;;;;;1.75;1.75;;;;;;;-0.57;88.08;102294.69;5339945;26;20046;-72
2021/03/18 01:39:33;;;;;;;2.10;2.00;;;;;;;-0.38;87.74;102320.84;5340605;26;20534;-72
2021/03/18 01:41:58;;;;;;;3.10;2.03;;;;;;;-0.62;88.18;102288.59;5340256;26;20031;-73
2021/03/18 01:44:23;;;;;;;1.60;1.60;;;;;;;-1.26;87.65;102170.50;5339062;26;20159;-73
2021/03/18 01:46:49;;;;;;;2.20;2.10;;;;;;;-0.36;87.86;102319.16;5340136;26;20035;-74
2021/03/18 01:49:16;;;;;;;2.83;2.67;;;;;;;-0.36;88.33;102312.31;5337695;26;20599;-73
2021/03/18 01:51:41;;;;;;;1.85;1.80;;;;;;;-0.35;88.24;102310.59;5359014;26;20053;-73
2021/03/18 01:54:07;;;;;;;2.12;2.03;;;;;;;-0.32;88.12;102315.78;5338947;26;20035;-73
2021/03/18 01:56:32;;;;;;;1.80;1.80;;;;;;;-0.50;87.64;102290.53;5343333;26;20064;-75
2021/03/18 01:58:57;;;;;;;2.10;2.00;;;;;;;-0.66;87.89;102258.41;5341237;26;20049;-73
2021/03/18 02:01:23;;;;;;;2.00;1.90;;;;;;;-0.39;87.73;102306.22;5340359;26;20038;-73
2021/03/18 02:03:48;;;;;;;1.85;1.85;;;;;;;-0.44;88.34;102298.37;5359441;26;20706;-75
2021/03/18 02:06:14;;;;;;;1.80;1.80;;;;;;;-0.96;88.29;102223.50;5362847;26;20046;-75
2021/03/18 02:08:39;;;;;;;2.37;2.28;;;;;;;-0.44;87.94;102337.94;5341208;26;20157;-75
2021/03/18 02:11:04;;;;;;;1.70;1.70;;;;;;;-0.67;87.78;102261.84;5339548;26;20492;-75
2021/03/18 02:13:30;;;;;;;1.87;1.87;;;;;;;-0.45;87.92;102306.97;5354293;26;20034;-75
2021/03/18 02:16:00;;;;;;;2.00;1.90;;;;;;;-1.43;88.18;102140.97;5338012;26;20034;-75
2021/03/18 02:18:48;;;;;;;1.80;1.80;;;;;;;-1.09;88.03;102191.44;5354589;26;20045;-73
2021/03/18 02:21:38;;;;;;;1.80;1.80;;;;;;;-0.76;88.40;102248.75;5361767;26;20039;-73
2021/03/18 02:24:25;;;;;;;1.65;1.65;;;;;;;-0.44;88.26;102294.09;5365715;26;20075;-74
2021/03/18 02:27:14;;;;;;;1.80;1.80;;;;;;;-0.42;87.64;102297.59;5376920;26;20046;-75
2021/03/18 02:29:44;;;;;;;2.95;2.80;;;;;;;-0.55;87.99;102262.06;5357527;26;20034;-75
2021/03/18 02:32:18;;;;;;;1.80;1.80;;;;;;;-0.37;88.11;102283.91;5356556;26;20057;-73
2021/03/18 02:35:09;;;;;;;2.70;2.60;;;;;;;-0.36;87.57;102295.94;5376351;26;20071;-73
2021/03/18 02:37:34;;;;;;;2.12;2.03;;;;;;;-0.49;88.28;102269.94;5341178;26;20052;-73
2021/03/18 02:40:03;;;;;;;2.10;2.00;;;;;;;-0.39;88.36;102295.91;5338756;26;20039;-73
2021/03/18 02:42:29;;;;;;;1.75;1.75;;;;;;;-0.48;88.58;102276.84;5339774;26;20055;-73
2021/03/18 02:44:56;;;;;;;2.08;1.98;;;;;;;-0.48;87.78;102279.41;5338048;26;20038;-73
2021/03/18 02:47:21;;;;;;;1.77;1.77;;;;;;;-1.33;88.28;102135.16;5336260;26;20160;-73
2021/03/18 02:49:47;;;;;;;1.70;1.70;;;;;;;-0.40;88.39;102295.03;5340171;26;20842;-72
2021/03/18 02:52:15;;;;;;;2.00;1.90;;;;;;;-0.89;88.18;102204.72;5336764;26;20035;-73
2021/03/18 02:54:42;;;;;;;1.80;1.80;;;;;;;-0.40;88.15;102277.00;5340765;26;20114;-73
2021/03/18 02:57:08;;;;;;;2.00;1.90;;;;;;;-0.54;88.63;102247.47;5338129;26;20127;-73
2021/03/18 02:59:35;;;;;;;1.80;1.80;;;;;;;-0.50;88.60;102254.41;5339389;26;20112;-73
2021/03/18 03:02:03;;;;;;;1.60;1.60;;;;;;;-0.43;88.13;102262.31;5338485;26;20034;-73
2021/03/18 03:04:28;;;;;;;1.70;1.70;;;;;;;-0.46;87.93;102254.53;5339861;26;20703;-73
2021/03/18 03:06:53;;;;;;;1.70;1.70;;;;;;;-0.56;87.87;102246.56;5337758;26;20049;-73
2021/03/18 03:09:19;;;;;;;2.00;1.90;;;;;;;-0.47;87.70;102257.94;5340238;26;20042;-72
2021/03/18 03:11:44;;;;;;;2.33;2.22;;;;;;;-0.52;87.93;102258.69;5338042;26;20035;-73
2021/03/18 03:14:10;;;;;;;1.70;1.70;;;;;;;-0.81;88.11;102210.03;5340625;26;20513;-74
2021/03/18 03:16:36;;;;;;;1.77;1.77;;;;;;;-0.68;87.87;102239.47;5340711;26;20043;-74
2021/03/18 03:19:01;;;;;;;1.70;1.70;;;;;;;-0.65;88.44;102255.00;5338510;26;20185;-72
2021/03/18 03:21:27;;;;;;;1.80;1.80;;;;;;;-0.66;87.92;102266.16;5340582;26;20051;-74
2021/03/18 03:23:52;;;;;;;2.10;2.00;;;;;;;-0.69;87.86;102256.66;5358691;26;20031;-72
2021/03/18 03:26:19;;;;;;;1.80;1.80;;;;;;;-1.58;87.94;102120.94;5361910;26;20038;-72
2021/03/18 03:28:45;;;;;;;1.85;1.80;;;;;;;-0.66;88.21;102267.03;5340723;26;20614;-74
2021/03/18 03:31:11;;;;;;;3.95;3.78;;;;;;;-1.20;88.46;102162.03;5337796;26;20038;-76
2021/03/18 03:33:37;;;;;;;1.52;1.52;;;;;;;-0.66;88.21;102269.63;5337865;26;20043;-75
2021/03/18 03:36:02;;;;;;;1.80;1.80;;;;;;;-0.72;88.64;102272.06;5358757;26;20047;-75
2021/03/18 03:38:28;;;;;;;1.80;1.80;;;;;;;-1.15;88.90;102177.56;5338004;26;20056;-74
2021/03/18 03:40:53;;;;;;;1.80;1.80;;;;;;;-0.82;89.15;102221.19;5358109;26;20034;-75
2021/03/18 03:43:19;;;;;;;1.75;1.75;;;;;;;-0.64;88.68;102249.88;5363880;26;20038;-75
2021/03/18 03:45:46;;;;;;;3.62;3.42;;;;;;;-0.87;88.48;102197.03;5340423;26;20104;-75
2021/03/18 03:48:11;;;;;;;1.73;1.73;;;;;;;-0.46;88.50;102262.25;5345724;26;20524;-75
2021/03/18 03:50:36;;;;;;;3.42;3.22;;;;;;;-1.55;88.21;102078.94;5340345;26;20039;-75
2021/03/18 03:53:16;;;;;;;2.25;2.15;;;;;;;-0.40;88.37;102266.66;5352662;26;20552;-73
2021/03/18 03:55:54;;;;;;;1.85;1.83;;;;;;;-0.38;88.86;102277.00;5379915;26;20096;-72
2021/03/18 03:58:28;;;;;;;2.20;2.10;;;;;;;-0.38;88.16;102272.72;5361961;26;20030;-75
2021/03/18 04:00:55;;;;;;;1.80;1.80;;;;;;;-0.47;89.15;102241.59;5398315;26;20663;-75
2021/03/18 04:03:20;;;;;;;1.80;1.80;;;;;;;-0.67;88.70;102207.72;5362588;26;20068;-75
2021/03/18 04:05:46;;;;;;;2.53;2.42;;;;;;;-0.74;88.45;102193.84;5361566;26;20057;-75
2021/03/18 04:08:13;;;;;;;1.70;1.70;;;;;;;-0.47;88.68;102231.28;5361204;26;20043;-75
2021/03/18 04:10:42;;;;;;;1.70;1.70;;;;;;;-0.72;87.95;102191.28;5360601;26;20046;-75
2021/03/18 04:13:09;;;;;;;1.92;1.83;;;;;;;-0.65;87.93;102224.06;5362703;26;20052;-73
2021/03/18 04:15:34;;;;;;;1.80;1.80;;;;;;;-0.21;88.65;102280.75;5361347;26;20058;-75
2021/03/18 04:18:00;;;;;;;1.60;1.60;;;;;;;-1.98;87.95;101985.41;5362064;26;20065;-75
2021/03/18 04:20:25;;;;;;;2.10;2.00;;;;;;;-0.14;88.06;102272.28;5361370;26;20034;-74
2021/03/18 04:22:52;;;;;;;2.20;2.10;;;;;;;-0.17;87.94;102272.22;5369098;26;20096;-72
2021/03/18 04:25:18;;;;;;;1.70;1.70;;;;;;;-0.26;88.03;102254.88;5339026;26;20043;-75
2021/03/18 04:27:44;;;;;;;1.80;1.80;;;;;;;-1.22;87.58;102099.31;5338257;26;20422;-75
2021/03/18 04:30:11;;;;;;;1.70;1.70;;;;;;;-0.13;87.58;102276.59;5360497;26;20492;-75
2021/03/18 04:32:37;;;;;;;1.80;1.80;;;;;;;-0.14;87.79;102259.41;5359255;26;20031;-75
2021/03/18 04:35:02;;;;;;;2.10;2.00;;;;;;;-0.60;88.08;102173.47;5360553;26;20065;-74
2021/03/18 04:37:28;;;;;;;2.00;1.90;;;;;;;-1.35;87.46;102076.75;5357040;26;20524;-74
2021/03/18 04:39:53;;;;;;;2.40;2.30;;;;;;;-0.17;87.43;102248.16;5361410;26;20946;-74
2021/03/18 04:42:18;;;;;;;1.70;1.70;;;;;;;-0.73;87.88;102158.63;5344605;26;20057;-74
2021/03/18 04:44:44;;;;;;;1.70;1.70;;;;;;;-0.10;87.43;102274.09;5343895;26;20053;-74
2021/03/18 04:47:11;;;;;;;1.67;1.67;;;;;;;-0.33;87.77;102231.53;5343581;26;20817;-74
2021/03/18 04:49:36;;;;;;;1.70;1.70;;;;;;;-0.24;87.81;102244.56;5360875;26;20030;-74
2021/03/18 04:52:02;;;;;;;1.70;1.70;;;;;;;-0.61;87.86;102177.75;5360405;26;20073;-74
2021/03/18 04:54:27;;;;;;;2.20;2.10;;;;;;;-0.18;88.31;102254.13;5343106;26;20058;-74
2021/03/18 04:56:52;;;;;;;1.73;1.73;;;;;;;-0.26;87.91;102254.88;5341263;26;20362;-73
2021/03/18 04:59:18;;;;;;;1.80;1.80;;;;;;;-1.05;87.44;102086.75;5344442;26;20101;-73
2021/03/18 05:01:47;;;;;;;1.80;1.80;;;;;;;0.02;87.46;102267.37;5361874;26;20109;-73
2021/03/18 05:04:15;;;;;;;1.73;1.73;;;;;;;-0.42;87.57;102196.13;5363043;26;20682;-73
2021/03/18 05:06:40;;;;;;;1.70;1.70;;;;;;;0.02;87.71;102259.63;5362373;26;20076;-73
2021/03/18 05:09:06;;;;;;;1.80;1.80;;;;;;;0.03;87.60;102259.66;5345109;26;20035;-73
2021/03/18 05:11:31;;;;;;;1.75;1.75;;;;;;;-1.10;87.43;102063.47;5361519;26;20096;-73
2021/03/18 05:13:56;;;;;;;2.10;2.00;;;;;;;-0.19;87.69;102227.47;5361558;26;20611;-74
2021/03/18 05:16:22;;;;;;;3.17;2.97;;;;;;;-0.52;87.22;102166.75;5342499;26;20049;-73
2021/03/18 05:18:47;;;;;;;2.10;2.00;;;;;;;-0.02;87.89;102251.84;5344104;26;20046;-73
2021/03/18 05:21:13;;;;;;;1.65;1.65;;;;;;;-0.49;88.00;102166.78;5345576;26;20091;-76
2021/03/18 05:23:38;;;;;;;2.42;2.30;;;;;;;-0.14;87.93;102225.84;5357193;26;20038;-75
2021/03/18 05:26:03;;;;;;;1.70;1.70;;;;;;;-0.18;87.41;102215.44;5345118;26;20731;-74
2021/03/18 05:28:29;;;;;;;1.75;1.75;;;;;;;0.02;87.96;102246.72;5378694;26;20065;-73
2021/03/18 05:30:54;;;;;;;1.80;1.80;;;;;;;-0.10;87.91;102217.31;5366283;26;20067;-73
2021/03/18 05:33:19;;;;;;;3.45;3.35;;;;;;;0.05;87.69;102237.31;5347450;26;20050;-73
2021/03/18 05:35:45;;;;;;;1.92;1.87;;;;;;;-1.05;87.30;102048.97;5344512;26;20652;-75
2021/03/18 05:38:12;;;;;;;1.70;1.70;;;;;;;0.07;87.22;102232.19;5342093;26;20049;-75
2021/03/18 05:40:37;;;;;;;1.70;1.70;;;;;;;-0.03;87.21;102213.09;5344451;26;20042;-73
2021/03/18 05:43:03;;;;;;;1.77;1.77;;;;;;;0.08;87.66;102236.50;5342771;26;20800;-73
2021/03/18 05:45:28;;;;;;;2.20;2.10;;;;;;;-0.74;87.37;102100.16;5344012;26;20038;-73
2021/03/18 05:47:54;;;;;;;2.10;2.00;;;;;;;-0.20;87.33;102189.63;5344155;26;20038;-74
2021/03/18 05:50:20;;;;;;;2.30;2.20;;;;;;;-1.10;87.64;102032.56;5345488;26;20760;-74
2021/03/18 05:52:48;;;;;;;2.42;2.33;;;;;;;-0.40;87.15;102153.19;5350659;26;20098;-75
2021/03/18 05:55:14;;;;;;;1.80;1.80;;;;;;;0.10;87.69;102239.97;5346980;26;20599;-72
2021/03/18 05:57:39;;;;;;;2.10;2.00;;;;;;;-2.41;87.21;101842.31;5342948;26;20118;-72
2021/03/18 06:00:10;;;;;;;1.70;1.70;;;;;;;0.02;87.36;102232.12;5344930;26;20038;-73
2021/03/18 06:02:35;;;;;;;1.80;1.80;;;;;;;-0.03;87.12;102213.97;5349121;26;20574;-74
2021/03/18 06:05:02;;;;;;;1.60;1.60;;;;;;;0.21;87.31;102232.41;5362196;26;20250;-74
2021/03/18 06:07:28;;;;;;;1.98;1.87;;;;;;;0.08;86.78;102211.56;5359696;26;20093;-73
2021/03/18 06:09:55;;;;;;;2.10;2.00;;;;;;;0.22;87.02;102235.03;5342170;26;20617;-74
2021/03/18 06:12:20;;;;;;;1.60;1.60;;;;;;;-0.03;87.16;102208.81;5345641;26;20050;-73
2021/03/18 06:14:45;;;;;;;2.03;1.95;;;;;;;0.18;87.01;102228.06;5346269;26;20989;-73
2021/03/18 06:17:11;;;;;;;2.40;2.30;;;;;;;-0.26;86.78;102140.47;5345776;26;20046;-73
2021/03/18 06:19:36;;;;;;;1.73;1.73;;;;;;;0.14;87.11;102197.88;5346298;26;20044;-74
2021/03/18 06:22:02;;;;;;;2.00;1.90;;;;;;;-0.02;87.20;102164.09;5347168;26;20602;-74
2021/03/18 06:24:28;;;;;;;1.95;1.87;;;;;;;0.00;86.61;102158.97;5345045;26;20051;-74
2021/03/18 06:26:53;;;;;;;2.15;2.05;;;;;;;0.23;86.23;102184.25;5345595;26;20039;-74
2021/03/18 06:29:35;;;;;;;2.62;2.53;;;;;;;0.48;86.74;102217.34;5345930;26;20115;-73
2021/03/18 06:32:08;;;;;;;2.37;2.28;;;;;;;-0.12;87.06;102100.31;5346255;26;20089;-73
2021/03/18 06:34:57;;;;;;;2.50;2.40;;;;;;;-0.13;85.89;102105.44;5358796;26;20039;-75
2021/03/18 06:37:38;;;;;;;2.30;2.20;;;;;;;0.63;86.23;102214.06;5345043;26;20133;-67
2021/03/18 06:40:19;;;;;;;2.00;1.90;;;;;;;0.73;85.95;102210.75;5341824;26;20343;-67
2021/03/18 06:42:55;;;;;;;2.00;1.90;;;;;;;0.82;85.94;102201.38;5360469;26;20097;-65
2021/03/18 06:45:20;;;;;;;2.10;2.00;;;;;;;0.72;85.85;102197.81;5360154;26;20099;-66
2021/03/18 06:47:51;;;;;;;2.00;1.90;;;;;;;0.85;84.91;102211.78;5347952;26;20057;-68
2021/03/18 06:50:23;;;;;;;2.08;1.98;;;;;;;0.91;85.34;102201.50;5341984;26;20058;-68
2021/03/18 06:52:48;;;;;;;2.42;2.33;;;;;;;0.82;85.21;102186.75;5367640;26;20587;-69
2021/03/18 06:55:32;;;;;;;2.67;2.58;;;;;;;0.98;84.48;102204.19;5341673;26;20041;-67
2021/03/18 06:58:20;;;;;;;1.92;1.90;;;;;;;1.06;84.88;102205.97;5343825;26;20484;-66
2021/03/18 07:00:52;;;;;;;2.30;2.20;;;;;;;1.10;83.88;102197.41;5359725;26;20417;-68
2021/03/18 07:03:33;;;;;;;2.00;1.90;;;;;;;1.20;84.15;102199.25;5378575;26;20333;-67
2021/03/18 07:05:59;;;;;;;2.20;2.10;;;;;;;1.32;84.63;102194.22;5359344;26;20419;-66
2021/03/18 07:08:38;;;;;;;2.12;2.03;;;;;;;1.48;83.54;102200.38;5341469;26;20137;-66
2021/03/18 07:11:22;;;;;;;2.00;1.90;;;;;;;1.69;83.52;102196.28;5342344;26;20042;-67
2021/03/18 07:13:48;;;;;;;2.00;1.90;;;;;;;1.63;82.15;102204.00;5342855;26;20053;-72
2021/03/18 07:16:14;;;;;;;2.30;2.20;;;;;;;1.51;82.64;102177.16;5341702;26;20268;-73
2021/03/18 07:18:39;;;;;;;2.20;2.10;;;;;;;1.91;83.08;102202.50;5357991;26;20663;-68
2021/03/18 07:21:11;;;;;;;2.25;2.15;;;;;;;1.85;81.97;102205.91;5340970;26;20123;-68
2021/03/18 07:23:39;;;;;;;2.42;2.33;;;;;;;1.45;82.73;102208.12;5354989;26;20576;-66
2021/03/18 07:26:10;;;;;;;1.98;1.87;;;;;;;1.64;82.11;102206.56;5360795;26;20586;-66
2021/03/18 07:28:36;;;;;;;2.30;2.20;;;;;;;1.55;82.38;102199.59;5340926;26;20457;-66
2021/03/18 07:31:01;;;;;;;2.20;2.10;;;;;;;1.43;82.67;102194.31;5336719;26;20054;-66
2021/03/18 07:33:27;;;;;;;2.30;2.20;;;;;;;1.86;83.20;102184.31;5353565;26;20049;-67
2021/03/18 07:35:52;;;;;;;2.20;2.10;;;;;;;2.08;81.43;102190.53;5358802;26;20462;-68
2021/03/18 07:38:17;;;;;;;2.20;2.10;;;;;;;2.41;81.63;102176.06;5357631;26;20038;-68
2021/03/18 07:40:43;;;;;;;2.30;2.20;;;;;;;2.70;81.20;102181.38;5360677;26;20046;-67
2021/03/18 07:43:08;;;;;;;2.17;2.08;;;;;;;2.75;79.69;102168.47;5358926;26;20073;-70
2021/03/18 07:45:33;;;;;;;2.22;2.12;;;;;;;2.73;78.77;102185.75;5360148;26;20050;-70
2021/03/18 07:48:00;;;;;;;2.40;2.30;;;;;;;2.61;79.05;102181.34;5362970;26;20394;-70
2021/03/18 07:50:28;;;;;;;2.62;2.53;;;;;;;2.98;78.94;102197.06;5364552;26;20258;-70
2021/03/18 07:52:53;;;;;;;2.30;2.20;;;;;;;3.21;77.48;102186.75;5361967;26;20734;-69
2021/03/18 07:55:19;;;;;;;2.10;2.00;;;;;;;2.83;78.01;102191.78;5362398;26;20282;-71
2021/03/18 07:57:49;;;;;;;2.95;2.85;;;;;;;3.27;78.12;102180.69;5361345;26;20039;-71
2021/03/18 08:00:19;;;;;;;2.33;2.22;;;;;;;3.40;77.21;102182.47;5362797;26;20054;-72
2021/03/18 08:02:44;;;;;;;2.35;2.25;;;;;;;3.84;76.46;102181.63;5360168;26;20058;-71
2021/03/18 08:05:10;;;;;;;2.37;2.28;;;;;;;4.08;75.24;102177.28;5363539;26;20053;-72
2021/03/18 08:07:37;;;;;;;2.30;2.20;;;;;;;3.98;74.45;102184.22;5362497;26;20031;-72
2021/03/18 08:10:07;;;;;;;2.37;2.28;;;;;;;4.08;74.60;102191.12;5363595;26;20038;-73
2021/03/18 08:12:46;;;;;;;2.80;2.70;;;;;;;4.36;74.04;102193.69;5363415;26;20647;-70
2021/03/18 08:15:30;;;;;;;3.62;3.33;;;;;;;3.96;73.57;102185.94;5358893;26;20294;-74
2021/03/18 08:18:17;;;;;;;2.45;2.35;;;;;;;3.60;74.40;102159.97;5363038;26;20132;-73
2021/03/18 08:20:42;;;;;;;2.70;2.60;;;;;;;3.56;75.56;102181.59;5382019;26;20080;-70
2021/03/18 08:23:23;;;;;;;3.30;3.00;;;;;;;3.69;76.47;102181.59;5400540;26;20034;-70
2021/03/18 08:26:11;;;;;;;2.40;2.30;;;;;;;4.06;75.82;102179.00;5400123;26;20523;-73
2021/03/18 08:28:47;;;;;;;3.33;3.12;;;;;;;3.86;74.90;102184.22;5370306;26;20047;-70
2021/03/18 08:31:14;;;;;;;5.95;2.83;;;;;;;4.21;74.95;102181.59;5358526;26;20046;-71
2021/03/18 08:33:49;;;;;;;2.40;2.30;;;;;;;3.68;75.61;102175.56;5340185;26;20039;-72
2021/03/18 08:36:27;;;;;;;7.37;4.12;;;;;;;3.22;76.37;102175.50;5336808;26;20046;-71
2021/03/18 08:38:57;;;;;;;2.75;2.65;;;;;;;3.24;77.86;102178.09;5358801;26;20057;-71
2021/03/18 08:41:27;;;;;;;2.95;2.75;;;;;;;3.68;76.81;102182.47;5340878;26;20054;-71
2021/03/18 08:44:23;;;;;;;2.40;2.30;;;;;;;3.70;75.70;102185.94;5358701;26;20061;-70
2021/03/18 08:46:52;;;;;;;3.03;2.92;;;;;;;3.84;75.57;102173.81;5360716;26;20499;-71
2021/03/18 08:49:28;;;;;;;2.40;2.30;;;;;;;3.93;75.49;102181.63;5383831;26;20057;-70
2021/03/18 08:51:54;;;;;;;2.50;2.40;;;;;;;4.52;74.57;102168.50;5401865;26;20045;-72
2021/03/18 08:54:44;;;;;;;2.80;2.70;;;;;;;4.81;73.11;102170.97;5365051;26;20042;-71
2021/03/18 08:57:13;;;;;;;2.35;2.25;;;;;;;1.25;71.27;101521.81;5397125;26;20464;-72
2021/03/18 08:59:44;;;;;;;2.50;2.40;;;;;;;5.16;70.61;102172.53;5359248;26;20039;-77
2021/03/18 09:02:12;;;;;;;2.42;2.33;;;;;;;4.28;70.96;102052.50;5362018;26;20436;-75
2021/03/18 09:04:43;;;;;;;3.17;3.08;;;;;;;4.98;70.21;102176.13;5360165;26;20110;-76
2021/03/18 09:07:14;;;;;;;2.58;2.47;;;;;;;5.27;71.42;102152.53;5356053;26;20046;-75
2021/03/18 09:09:41;;;;;;;2.60;2.50;;;;;;;5.78;70.79;102173.81;5360018;26;20395;-73
2021/03/18 09:12:07;;;;;;;2.75;2.65;;;;;;;4.98;69.76;102179.56;5341891;26;20223;-73
2021/03/18 09:14:32;;;;;;;2.50;2.40;;;;;;;4.84;71.83;102176.19;5362660;26;20318;-74
2021/03/18 09:17:10;;;;;;;2.78;2.67;;;;;;;5.20;70.89;102184.66;5360147;26;20405;-74
2021/03/18 09:19:36;;;;;;;2.40;2.30;;;;;;;5.08;71.08;102169.97;5380067;26;20087;-73
2021/03/18 09:22:02;;;;;;;2.72;2.62;;;;;;;4.47;71.53;102116.53;5359974;26;20050;-71
2021/03/18 09:24:37;;;;;;;2.50;2.40;;;;;;;4.87;71.84;102165.78;5362300;26;20320;-72
2021/03/18 09:27:06;;;;;;;3.12;2.97;;;;;;;5.39;70.25;102212.31;5360244;26;20074;-75
2021/03/18 09:29:32;;;;;;;2.50;2.40;;;;;;;4.90;69.41;102124.13;5362915;26;20038;-75
2021/03/18 09:32:15;;;;;;;3.30;3.10;;;;;;;5.34;69.72;102187.19;5359046;26;20049;-71
2021/03/18 09:34:42;;;;;;;2.60;2.50;;;;;;;5.24;70.66;102178.56;5364541;26;20038;-74
2021/03/18 09:37:07;;;;;;;3.50;3.37;;;;;;;4.71;71.09;102169.28;5357251;26;20116;-75
2021/03/18 09:39:33;;;;;;;3.25;3.05;;;;;;;4.24;73.27;102176.37;5359444;26;20038;-72
2021/03/18 09:42:01;;;;;;;3.67;3.55;;;;;;;4.14;73.80;102183.31;5355811;26;20061;-76
2021/03/18 09:44:27;;;;;;;2.65;2.55;;;;;;;4.36;74.43;102180.69;5340781;26;20057;-72
2021/03/18 09:46:54;;;;;;;2.70;2.60;;;;;;;4.16;71.96;102100.19;5339206;26;20051;-73
2021/03/18 09:49:32;;;;;;;2.67;2.58;;;;;;;4.60;72.93;102179.75;5337629;26;20336;-72
2021/03/18 09:51:58;;;;;;;2.60;2.50;;;;;;;5.14;70.75;102171.69;5377962;26;20056;-72
2021/03/18 09:54:23;;;;;;;2.40;2.30;;;;;;;5.79;68.59;102170.34;5340941;26;20495;-72
2021/03/18 09:56:51;;;;;;;2.75;2.65;;;;;;;5.99;67.19;102166.72;5339007;26;20890;-72
2021/03/18 09:59:16;;;;;;;3.08;2.92;;;;;;;5.35;68.78;102170.69;5341733;26;20053;-76
2021/03/18 10:01:42;;;;;;;2.40;2.30;;;;;;;4.75;71.33;102174.50;5342125;26;20066;-73
2021/03/18 10:04:11;;;;;;;2.58;2.47;;;;;;;5.29;71.24;102178.53;5338815;26;20054;-70
2021/03/18 10:06:37;;;;;;;2.40;2.30;;;;;;;5.41;69.79;102170.62;5340762;26;20104;-71
2021/03/18 10:09:19;;;;;;;2.50;2.40;;;;;;;4.40;69.38;102040.31;5357912;26;20054;-74
2021/03/18 10:11:49;;;;;;;2.58;2.47;;;;;;;5.67;68.32;102165.22;5360168;26;20263;-71
2021/03/18 10:14:16;;;;;;;2.30;2.20;;;;;;;5.14;67.24;102169.09;5360771;26;20061;-74
2021/03/18 10:16:41;;;;;;;2.35;2.25;;;;;;;5.78;67.87;102157.34;5341277;26;20044;-71
2021/03/18 10:19:07;;;;;;;2.60;2.50;;;;;;;6.18;65.91;102157.84;5360012;26;20115;-72
2021/03/18 10:21:32;;;;;;;2.50;2.40;;;;;;;6.10;63.88;102086.69;5362692;26;20037;-72
2021/03/18 10:23:58;;;;;;;3.03;2.92;;;;;;;6.00;63.87;102100.72;5339341;26;20095;-75
2021/03/18 10:26:23;;;;;;;2.80;2.70;;;;;;;5.14;63.53;102011.19;5339658;26;20410;-75
2021/03/18 10:29:02;;;;;;;2.97;2.67;;;;;;;5.71;63.78;102148.72;5342819;26;20084;-72
2021/03/18 10:31:28;;;;;;;2.67;2.58;;;;;;;5.84;62.62;102148.63;5341809;26;20046;-75
2021/03/18 10:33:53;;;;;;;2.65;2.55;;;;;;;6.27;61.50;102142.97;5341073;26;20057;-77
2021/03/18 10:36:38;;;;;;;2.60;2.50;;;;;;;6.18;63.44;102143.97;5340071;26;20069;-72
2021/03/18 10:39:08;;;;;;;2.60;2.50;;;;;;;6.53;61.71;102143.53;5357852;26;20115;-71
2021/03/18 10:41:34;;;;;;;2.67;2.58;;;;;;;6.61;59.53;102088.66;5357192;26;20039;-71
2021/03/18 10:43:59;;;;;;;2.75;2.65;;;;;;;6.68;60.11;102132.06;5376556;26;20034;-72
2021/03/18 10:46:33;;;;;;;2.75;2.65;;;;;;;5.29;63.20;102105.66;5374875;26;20047;-72
2021/03/18 10:48:59;;;;;;;2.70;2.60;;;;;;;5.39;64.01;102097.78;5378221;26;20050;-73
2021/03/18 10:51:24;;;;;;;2.90;2.80;;;;;;;4.60;65.23;101927.53;5358840;26;20053;-73
2021/03/18 10:53:50;;;;;;;2.65;2.55;;;;;;;5.89;65.01;102119.00;5357240;26;20107;-69
2021/03/18 10:56:24;;;;;;;2.60;2.50;;;;;;;6.05;64.11;102103.25;5336645;26;20051;-68
2021/03/18 10:58:51;;;;;;;2.60;2.50;;;;;;;6.65;62.30;102106.00;5340297;26;20496;-69
2021/03/18 11:01:24;;;;;;;2.70;2.60;;;;;;;6.11;63.16;102108.41;5337313;26;20042;-69
2021/03/18 11:03:49;;;;;;;;;;;;;;;5.42;65.35;102107.28;5338386;26;20138;-67
2021/03/18 11:06:22;;;;;;;3.20;3.10;;;;;;;5.38;64.64;102108.19;5375636;26;20361;-69
2021/03/18 11:08:51;;;;;;;2.70;2.60;;;;;;;5.94;64.71;102088.56;5336879;26;20066;-70
2021/03/18 11:11:30;;;;;;;2.65;2.55;;;;;;;6.49;63.79;102117.53;5356338;26;20057;-73
2021/03/18 11:14:09;;;;;;;2.80;2.70;;;;;;;5.59;64.74;102097.59;5337229;26;20293;-71
2021/03/18 11:16:34;;;;;;;2.60;2.50;;;;;;;5.52;66.40;102092.47;5338576;26;20720;-71
2021/03/18 11:19:01;;;;;;;2.78;2.67;;;;;;;5.73;65.45;102100.09;5337311;26;20210;-71
2021/03/18 11:21:32;;;;;;;2.65;2.55;;;;;;;5.60;65.15;102096.72;5339286;26;20042;-71
2021/03/18 11:24:07;;;;;;;2.80;2.70;;;;;;;5.63;66.14;102087.13;5338134;26;20038;-71
2021/03/18 11:26:33;;;;;;;3.10;3.00;;;;;;;5.84;64.19;102081.72;5358649;26;20637;-72
2021/03/18 11:29:10;;;;;;;3.08;2.97;;;;;;;5.33;64.27;101966.78;5338755;26;20057;-72
2021/03/18 11:31:40;;;;;;;2.67;2.58;;;;;;;4.33;63.04;101861.00;5358547;26;20043;-72
2021/03/18 11:34:17;;;;;;;2.97;2.87;;;;;;;5.95;63.20;102085.13;5338055;26;20457;-72
2021/03/18 11:36:47;;;;;;;2.58;2.47;;;;;;;5.57;62.47;102062.00;5376292;26;20560;-71